createdAt,value
2023-02-05T00:01:44.714Z,103588.66
2023-02-05T00:04:09.493Z,103577.31
2023-02-05T00:06:33.300Z,103590.66
2023-02-05T00:08:58.311Z,103585.22
2023-02-05T00:11:23.460Z,103578.13
2023-02-05T00:13:47.231Z,103588.66
2023-02-05T00:16:12.957Z,103588.78
2023-02-05T00:18:37.453Z,103590.56
2023-02-05T00:21:01.127Z,103587.03
2023-02-05T00:23:24.913Z,103587.03
2023-02-05T00:25:48.574Z,103577.38
2023-02-05T00:28:13.896Z,103573.81
2023-02-05T00:30:37.647Z,103570.25
2023-02-05T00:33:01.448Z,103564.94
2023-02-05T00:35:25.211Z,103569.34
2023-02-05T00:37:48.877Z,103567.53
2023-02-05T00:40:14.094Z,103575.41
2023-02-05T00:42:38.608Z,103583.19
2023-02-05T00:45:03.891Z,103577.88
2023-02-05T00:47:27.680Z,103580.50
2023-02-05T00:49:51.305Z,103571.69
2023-02-05T00:52:15.425Z,103567.34
2023-02-05T00:54:39.142Z,103559.28
2023-02-05T00:57:03.793Z,103562.78
2023-02-05T00:59:27.685Z,103558.22
2023-02-05T01:01:52.846Z,103551.22
2023-02-05T01:04:17.444Z,103552.88
2023-02-05T01:06:41.207Z,103560.78
2023-02-05T01:09:05.434Z,103559.78
2023-02-05T01:11:29.628Z,103549.16
2023-02-05T01:13:53.314Z,103548.81
2023-02-05T01:16:17.296Z,103545.50
2023-02-05T01:18:42.686Z,103544.56
2023-02-05T01:21:06.867Z,103539.84
2023-02-05T01:23:30.589Z,103535.50
2023-02-05T01:25:54.350Z,103531.25
2023-02-05T01:28:18.084Z,103532.88
2023-02-05T01:30:43.105Z,103540.22
2023-02-05T01:33:06.942Z,103534.78
2023-02-05T01:35:32.514Z,103519.19
2023-02-05T01:37:56.334Z,103525.50
2023-02-05T01:40:20.772Z,103526.31
2023-02-05T01:42:44.858Z,103512.09
2023-02-05T01:46:01.987Z,103512.16
2023-02-05T01:48:31.442Z,103502.38
2023-02-05T01:51:01.264Z,103505.91
2023-02-05T01:53:29.707Z,103505.09
2023-02-05T01:55:57.657Z,103503.81
2023-02-05T01:58:21.535Z,103496.38
2023-02-05T02:00:45.500Z,103504.72
2023-02-05T02:03:09.262Z,103495.97
2023-02-05T02:05:33.380Z,103492.47
2023-02-05T02:07:59.074Z,103483.69
2023-02-05T02:10:23.062Z,103483.56
2023-02-05T02:12:49.143Z,103486.09
2023-02-05T02:15:17.897Z,103480.94
2023-02-05T02:17:45.021Z,103477.38
2023-02-05T02:20:12.851Z,103468.53
2023-02-05T02:23:03.713Z,103469.41
2023-02-05T02:25:56.177Z,103457.84
2023-02-05T02:28:27.985Z,103468.94
2023-02-05T02:31:01.110Z,103463.56
2023-02-05T02:33:36.624Z,103460.19
2023-02-05T02:36:04.655Z,103451.34
2023-02-05T02:38:33.020Z,103450.63
2023-02-05T02:41:05.701Z,103449.78
2023-02-05T02:43:36.722Z,103450.78
2023-02-05T02:46:04.588Z,103446.41
2023-02-05T02:48:31.987Z,103437.59
2023-02-05T02:50:58.362Z,103448.94
2023-02-05T02:53:25.963Z,103444.09
2023-02-05T02:55:52.180Z,103446.66
2023-02-05T02:58:22.782Z,103446.75
2023-02-05T03:00:49.884Z,103446.81
2023-02-05T03:03:17.827Z,103447.69
2023-02-05T03:05:45.456Z,103461.28
2023-02-05T03:08:14.407Z,103456.13
2023-02-05T03:10:44.529Z,103456.41
2023-02-05T03:13:12.234Z,103446.53
2023-02-05T03:15:40.118Z,103448.41
2023-02-05T03:18:05.893Z,103454.09
2023-02-05T03:20:34.025Z,103454.47
2023-02-05T03:22:58.381Z,103455.38
2023-02-05T03:25:23.763Z,103455.47
2023-02-05T03:27:54.512Z,103459.69
2023-02-05T03:30:20.987Z,103451.97
2023-02-05T03:33:01.345Z,103437.69
2023-02-05T03:35:36.581Z,103434.84
2023-02-05T03:38:37.082Z,103437.84
2023-02-05T03:41:11.084Z,103442.22
2023-02-05T03:43:46.945Z,103440.44
2023-02-05T03:46:19.134Z,103440.13
2023-02-05T03:48:56.703Z,103446.31
2023-02-05T03:51:34.577Z,103443.56
2023-02-05T03:54:11.379Z,103434.84
2023-02-05T03:56:45.105Z,103434.75
2023-02-05T03:59:10.941Z,103449.50
2023-02-05T04:01:36.001Z,103457.59
2023-02-05T04:03:59.965Z,103454.84
2023-02-05T04:06:26.302Z,103461.56
2023-02-05T04:08:50.771Z,103466.19
2023-02-05T04:11:14.619Z,103462.59
2023-02-05T04:13:40.436Z,103463.09
2023-02-05T04:16:07.583Z,103465.56
2023-02-05T04:18:31.435Z,103469.25
2023-02-05T04:20:55.325Z,103461.28
2023-02-05T04:23:23.507Z,103459.88
2023-02-05T04:25:48.241Z,103458.09
2023-02-05T04:28:15.503Z,103457.19
2023-02-05T04:30:40.574Z,103463.25
2023-02-05T04:33:06.478Z,103457.16
2023-02-05T04:35:30.400Z,103452.75
2023-02-05T04:37:54.631Z,103464.19
2023-02-05T04:40:21.256Z,103460.91
2023-02-05T04:42:45.345Z,103465.44
2023-02-05T04:45:10.439Z,103463.66
2023-02-05T04:47:34.634Z,103456.38
2023-02-05T04:49:58.289Z,103455.78
2023-02-05T04:52:22.066Z,103452.31
2023-02-05T04:54:45.716Z,103451.53
2023-02-05T04:57:10.915Z,103451.59
2023-02-05T04:59:34.628Z,103448.00
2023-02-05T05:01:58.657Z,103457.63
2023-02-05T05:04:22.398Z,103445.31
2023-02-05T05:06:46.111Z,103434.91
2023-02-05T05:09:09.786Z,103438.56
2023-02-05T05:11:33.515Z,103447.22
2023-02-05T05:13:59.374Z,103431.28
2023-02-05T05:16:23.128Z,103430.47
2023-02-05T05:18:47.024Z,103426.09
2023-02-05T05:21:11.668Z,103443.47
2023-02-05T05:23:35.908Z,103449.75
2023-02-05T05:25:59.659Z,103456.06
2023-02-05T05:28:23.401Z,103444.78
2023-02-05T05:30:49.082Z,103448.22
2023-02-05T05:33:13.300Z,103452.91
2023-02-05T05:35:37.421Z,103453.78
2023-02-05T05:38:01.997Z,103471.19
2023-02-05T05:40:43.383Z,103471.25
2023-02-05T05:43:24.683Z,103481.72
2023-02-05T05:45:49.832Z,103479.81
2023-02-05T05:48:13.526Z,103485.00
2023-02-05T05:50:37.249Z,103479.91
2023-02-05T05:53:00.977Z,103475.63
2023-02-05T05:55:24.730Z,103465.75
2023-02-05T05:57:48.433Z,103456.16
2023-02-05T06:00:14.528Z,103444.84
2023-02-05T06:02:44.307Z,103444.88
2023-02-05T06:05:08.958Z,103442.41
2023-02-05T06:07:32.622Z,103447.53
2023-02-05T06:09:56.353Z,103448.50
2023-02-05T06:12:19.990Z,103443.06
2023-02-05T06:14:45.070Z,103451.03
2023-02-05T06:17:08.694Z,103451.06
2023-02-05T06:19:33.821Z,103455.47
2023-02-05T06:21:57.481Z,103451.16
2023-02-05T06:24:21.197Z,103446.97
2023-02-05T06:26:44.881Z,103442.44
2023-02-05T06:29:08.580Z,103448.63
2023-02-05T06:31:32.596Z,103447.47
2023-02-05T06:33:56.394Z,103446.84
2023-02-05T06:36:21.520Z,103452.25
2023-02-05T06:38:45.220Z,103454.81
2023-02-05T06:41:08.921Z,103446.97
2023-02-05T06:43:32.600Z,103440.91
2023-02-05T06:45:56.920Z,103446.03
2023-02-05T06:48:20.708Z,103445.44
2023-02-05T06:50:44.386Z,103456.94
2023-02-05T06:53:11.583Z,103466.69
2023-02-05T06:55:35.832Z,103466.78
2023-02-05T06:57:59.709Z,103463.13
2023-02-05T07:00:23.827Z,103470.00
2023-02-05T07:02:47.669Z,103471.56
2023-02-05T07:05:12.817Z,103470.25
2023-02-05T07:07:36.694Z,103464.19
2023-02-05T07:10:02.137Z,103461.50
2023-02-05T07:12:25.889Z,103465.75
2023-02-05T07:14:49.671Z,103466.00
2023-02-05T07:17:13.543Z,103457.16
2023-02-05T07:19:37.786Z,103450.38
2023-02-05T07:22:01.904Z,103433.00
2023-02-05T07:24:25.527Z,103446.16
2023-02-05T07:26:50.699Z,103452.34
2023-02-05T07:29:14.518Z,103445.38
2023-02-05T07:31:38.563Z,103440.91
2023-02-05T07:34:02.417Z,103438.19
2023-02-05T07:36:26.546Z,103447.22
2023-02-05T07:38:50.374Z,103434.06
2023-02-05T07:41:17.280Z,103428.00
2023-02-05T07:43:42.558Z,103422.59
2023-02-05T07:46:08.547Z,103421.88
2023-02-05T07:48:32.309Z,103418.56
2023-02-05T07:50:56.133Z,103424.88
2023-02-05T07:53:20.049Z,103426.63
2023-02-05T07:55:43.764Z,103426.66
2023-02-05T07:58:07.470Z,103423.25
2023-02-05T08:00:32.617Z,103426.03
2023-02-05T08:02:56.261Z,103422.56
2023-02-05T08:05:20.096Z,103420.75
2023-02-05T08:07:43.781Z,103421.66
2023-02-05T08:10:08.563Z,103415.53
2023-02-05T08:12:32.368Z,103421.81
2023-02-05T08:14:56.438Z,103419.22
2023-02-05T08:17:21.551Z,103414.81
2023-02-05T08:19:45.312Z,103412.03
2023-02-05T08:22:09.226Z,103411.34
2023-02-05T08:24:33.597Z,103414.03
2023-02-05T08:26:57.187Z,103414.94
2023-02-05T08:29:20.922Z,103408.53
2023-02-05T08:31:45.424Z,103402.25
2023-02-05T08:34:10.606Z,103401.50
2023-02-05T08:36:34.316Z,103405.28
2023-02-05T08:38:58.279Z,103404.53
2023-02-05T08:41:21.927Z,103402.84
2023-02-05T08:43:48.311Z,103408.16
2023-02-05T08:46:14.489Z,103399.44
2023-02-05T08:48:39.202Z,103406.56
2023-02-05T08:51:05.465Z,103403.00
2023-02-05T08:53:29.552Z,103398.66
2023-02-05T08:55:57.152Z,103399.56
2023-02-05T08:58:20.913Z,103398.66
2023-02-05T09:00:44.557Z,103403.13
2023-02-05T09:03:08.855Z,103401.44
2023-02-05T09:05:32.658Z,103393.56
2023-02-05T09:07:59.299Z,103403.25
2023-02-05T09:10:23.128Z,103405.06
2023-02-05T09:12:49.068Z,103405.06
2023-02-05T09:15:12.679Z,103410.38
2023-02-05T09:17:36.471Z,103405.03
2023-02-05T09:20:00.208Z,103406.88
2023-02-05T09:22:23.905Z,103404.22
2023-02-05T09:24:49.009Z,103409.53
2023-02-05T09:27:14.408Z,103404.25
2023-02-05T09:29:38.273Z,103412.22
2023-02-05T09:32:02.094Z,103409.56
2023-02-05T09:34:25.732Z,103411.28
2023-02-05T09:36:49.451Z,103419.19
2023-02-05T09:39:25.684Z,103418.34
2023-02-05T09:42:05.050Z,103413.97
2023-02-05T09:44:50.652Z,103420.19
2023-02-05T09:47:25.019Z,103413.91
2023-02-05T09:49:57.781Z,103406.06
2023-02-05T09:52:27.326Z,103405.16
2023-02-05T09:54:56.649Z,103397.09
2023-02-05T09:57:34.700Z,103394.47
2023-02-05T09:59:59.457Z,103394.59
2023-02-05T10:02:30.611Z,103399.00
2023-02-05T10:04:55.379Z,103402.56
2023-02-05T10:07:27.545Z,103402.56
2023-02-05T10:10:26.059Z,103390.19
2023-02-05T10:13:29.307Z,103387.50
2023-02-05T10:16:34.741Z,103389.31
2023-02-05T10:19:20.864Z,103382.22
2023-02-05T10:22:11.979Z,103383.16
2023-02-05T10:24:53.770Z,103381.38
2023-02-05T10:27:22.715Z,103372.53
2023-02-05T10:29:59.547Z,103364.56
2023-02-05T10:32:24.974Z,103360.19
2023-02-05T10:34:58.060Z,103357.38
2023-02-05T10:37:29.873Z,103348.63
2023-02-05T10:39:54.829Z,103355.72
2023-02-05T10:42:30.445Z,103361.88
2023-02-05T10:45:07.436Z,103353.13
2023-02-05T10:47:49.432Z,103359.28
2023-02-05T10:50:23.179Z,103345.97
2023-02-05T10:52:46.970Z,103349.56
2023-02-05T10:55:13.373Z,103338.97
2023-02-05T10:57:37.494Z,103343.31
2023-02-05T11:00:07.751Z,103342.41
2023-02-05T11:02:38.708Z,103346.81
2023-02-05T11:05:07.940Z,103332.78
2023-02-05T11:07:40.200Z,103346.00
2023-02-05T11:10:17.426Z,103342.47
2023-02-05T11:12:41.220Z,103344.03
2023-02-05T11:15:06.471Z,103340.63
2023-02-05T11:17:35.482Z,103337.09
2023-02-05T11:20:02.951Z,103337.06
2023-02-05T11:22:31.746Z,103336.22
2023-02-05T11:25:11.436Z,103334.38
2023-02-05T11:27:36.772Z,103328.31
2023-02-05T11:30:51.959Z,103329.97
2023-02-05T11:33:30.776Z,103330.94
2023-02-05T11:35:59.118Z,103338.91
2023-02-05T11:38:31.949Z,103336.25
2023-02-05T11:40:55.951Z,103328.25
2023-02-05T11:43:26.897Z,103325.56
2023-02-05T11:45:55.168Z,103323.78
2023-02-05T11:48:36.456Z,103313.97
2023-02-05T11:51:00.793Z,103319.13
2023-02-05T11:53:24.896Z,103325.47
2023-02-05T11:55:55.730Z,103319.97
2023-02-05T11:58:36.202Z,103330.72
2023-02-05T12:01:04.243Z,103336.78
2023-02-05T12:03:31.074Z,103328.00
2023-02-05T12:06:04.557Z,103323.41
2023-02-05T12:08:37.646Z,103322.59
2023-02-05T12:11:17.223Z,103326.31
2023-02-05T12:13:58.439Z,103323.47
2023-02-05T12:16:41.758Z,103318.19
2023-02-05T12:19:19.618Z,103326.97
2023-02-05T12:21:51.859Z,103316.22
2023-02-05T12:24:31.712Z,103322.59
2023-02-05T12:27:00.768Z,103320.63
2023-02-05T12:29:46.556Z,103315.13
2023-02-05T12:32:23.573Z,103314.38
2023-02-05T12:35:09.548Z,103308.88
2023-02-05T12:37:40.936Z,103306.38
2023-02-05T12:40:25.428Z,103304.06
2023-02-05T12:42:59.683Z,103311.06
2023-02-05T12:45:54.586Z,103309.69
2023-02-05T12:48:40.294Z,103301.69
2023-02-05T12:51:23.008Z,103308.06
2023-02-05T12:54:19.817Z,103306.53
2023-02-05T12:56:58.153Z,103316.25
2023-02-05T12:59:34.506Z,103319.69
2023-02-05T13:02:07.345Z,103322.41
2023-02-05T13:04:38.883Z,103319.88
2023-02-05T13:07:13.147Z,103313.59
2023-02-05T13:09:48.794Z,103315.25
2023-02-05T13:12:16.784Z,103325.31
2023-02-05T13:14:45.658Z,103322.44
2023-02-05T13:17:17.280Z,103321.50
2023-02-05T13:19:48.277Z,103325.09
2023-02-05T13:22:35.833Z,103318.75
2023-02-05T13:25:29.977Z,103316.03
2023-02-05T13:28:30.445Z,103321.25
2023-02-05T13:30:57.265Z,103327.81
2023-02-05T13:33:20.872Z,103332.22
2023-02-05T13:35:58.034Z,103345.34
2023-02-05T13:38:39.997Z,103355.25
2023-02-05T13:41:30.247Z,103350.59
2023-02-05T13:44:21.122Z,103349.72
2023-02-05T13:47:19.911Z,103356.97
2023-02-05T13:50:29.332Z,103362.13
2023-02-05T13:53:25.183Z,103354.91
2023-02-05T13:56:25.211Z,103353.22
2023-02-05T13:58:51.962Z,103347.81
2023-02-05T14:01:22.670Z,103342.59
2023-02-05T14:03:59.525Z,103341.81
2023-02-05T14:06:29.777Z,103326.94
2023-02-05T14:09:02.651Z,103332.16
2023-02-05T14:11:26.427Z,103341.00
2023-02-05T14:14:37.898Z,103342.56
2023-02-05T14:17:04.328Z,103342.66
2023-02-05T14:19:57.071Z,103343.56
2023-02-05T14:22:38.088Z,103329.56
2023-02-05T14:25:03.180Z,103322.53
2023-02-05T14:27:55.297Z,103311.13
2023-02-05T14:30:50.830Z,103312.84
2023-02-05T14:33:40.622Z,103301.31
2023-02-05T14:36:33.928Z,103293.44
2023-02-05T14:39:02.059Z,103284.59
2023-02-05T14:41:31.051Z,103282.59
2023-02-05T14:43:59.369Z,103286.00
2023-02-05T14:46:31.375Z,103285.31
2023-02-05T14:48:58.258Z,103295.19
2023-02-05T14:51:27.440Z,103312.25
2023-02-05T14:53:59.926Z,103318.16
2023-02-05T14:56:33.918Z,103313.75
2023-02-05T14:59:05.199Z,103314.75
2023-02-05T15:01:44.511Z,103323.78
2023-02-05T15:04:23.404Z,103328.09
2023-02-05T15:06:48.395Z,103338.63
2023-02-05T15:09:18.574Z,103340.25
2023-02-05T15:12:02.704Z,103339.44
2023-02-05T15:14:44.527Z,103339.44
2023-02-05T15:17:58.118Z,103348.47
2023-02-05T15:20:32.369Z,103357.13
2023-02-05T15:23:04.755Z,103355.31
2023-02-05T15:25:39.641Z,103363.44
2023-02-05T15:28:10.190Z,103360.75
2023-02-05T15:30:53.368Z,103358.91
2023-02-05T15:33:27.082Z,103365.31
2023-02-05T15:35:52.891Z,103378.56
2023-02-05T15:38:28.441Z,103378.53
2023-02-05T15:40:52.957Z,103369.63
2023-02-05T15:43:23.495Z,103369.63
2023-02-05T15:45:47.814Z,103367.06
2023-02-05T15:48:16.775Z,103380.28
2023-02-05T15:50:47.016Z,103388.28
2023-02-05T15:53:22.882Z,103391.00
2023-02-05T15:55:50.284Z,103392.81
2023-02-05T15:58:18.181Z,103398.94
2023-02-05T16:00:47.854Z,103391.91
2023-02-05T16:03:27.690Z,103390.13
2023-02-05T16:05:54.223Z,103398.13
2023-02-05T16:08:21.334Z,103404.31
2023-02-05T16:10:57.799Z,103400.75
2023-02-05T16:13:22.861Z,103390.19
2023-02-05T16:15:53.300Z,103372.50
2023-02-05T16:18:22.808Z,103374.31
2023-02-05T16:20:53.232Z,103366.38
2023-02-05T16:23:25.709Z,103362.81
2023-02-05T16:25:53.617Z,103351.38
2023-02-05T16:28:21.531Z,103365.47
2023-02-05T16:30:49.027Z,103370.78
2023-02-05T16:33:26.593Z,103379.63
2023-02-05T16:35:50.583Z,103372.47
2023-02-05T16:38:19.010Z,103374.28
2023-02-05T16:40:46.681Z,103382.16
2023-02-05T16:43:28.976Z,103376.91
2023-02-05T16:46:31.101Z,103385.72
2023-02-05T16:48:58.461Z,103388.31
2023-02-05T16:51:36.565Z,103375.13
2023-02-05T16:54:01.969Z,103379.50
2023-02-05T16:56:28.604Z,103377.72
2023-02-05T16:58:55.962Z,103376.81
2023-02-05T17:01:25.032Z,103369.78
2023-02-05T17:03:51.664Z,103377.69
2023-02-05T17:06:17.768Z,103371.53
2023-02-05T17:08:45.451Z,103375.91
2023-02-05T17:11:34.957Z,103389.06
2023-02-05T17:14:22.188Z,103397.91
2023-02-05T17:16:57.622Z,103395.25
2023-02-05T17:19:28.301Z,103389.91
2023-02-05T17:22:20.583Z,103392.50
2023-02-05T17:24:45.579Z,103397.78
2023-02-05T17:27:15.996Z,103402.19
2023-02-05T17:29:39.681Z,103406.56
2023-02-05T17:32:05.165Z,103428.50
2023-02-05T17:34:30.205Z,103422.34
2023-02-05T17:36:53.796Z,103418.84
2023-02-05T17:39:17.433Z,103422.41
2023-02-05T17:42:08.906Z,103424.16
2023-02-05T17:44:34.226Z,103427.63
2023-02-05T17:47:00.399Z,103424.13
2023-02-05T17:49:24.047Z,103428.44
2023-02-05T17:51:49.121Z,103422.94
2023-02-05T17:54:16.099Z,103421.28
2023-02-05T17:56:42.209Z,103420.38
2023-02-05T17:59:05.893Z,103420.38
2023-02-05T18:01:29.592Z,103433.41
2023-02-05T18:03:53.249Z,103453.69
2023-02-05T18:06:19.785Z,103451.91
2023-02-05T18:08:44.848Z,103462.41
2023-02-05T18:11:08.496Z,103472.09
2023-02-05T18:13:32.254Z,103471.16
2023-02-05T18:16:01.456Z,103475.34
2023-02-05T18:18:25.203Z,103476.25
2023-02-05T18:20:48.842Z,103482.44
2023-02-05T18:23:16.198Z,103478.13
2023-02-05T18:25:46.470Z,103487.84
2023-02-05T18:28:10.212Z,103482.44
2023-02-05T18:30:34.524Z,103473.56
2023-02-05T18:32:58.480Z,103486.78
2023-02-05T18:35:22.181Z,103484.13
2023-02-05T18:37:47.074Z,103491.84
2023-02-05T18:40:12.692Z,103500.78
2023-02-05T18:42:37.727Z,103501.59
2023-02-05T18:45:01.541Z,103496.19
2023-02-05T18:47:25.169Z,103502.44
2023-02-05T18:49:48.855Z,103497.97
2023-02-05T18:52:14.030Z,103497.97
2023-02-05T18:54:37.670Z,103507.53
2023-02-05T18:57:01.340Z,103508.41
2023-02-05T18:59:26.426Z,103515.47
2023-02-05T19:01:50.008Z,103518.03
2023-02-05T19:04:18.553Z,103517.16
2023-02-05T19:06:43.103Z,103510.97
2023-02-05T19:09:06.800Z,103519.53
2023-02-05T19:11:32.062Z,103519.53
2023-02-05T19:14:02.596Z,103534.34
2023-02-05T19:16:29.495Z,103535.19
2023-02-05T19:18:53.093Z,103529.94
2023-02-05T19:21:19.584Z,103518.47
2023-02-05T19:23:44.432Z,103518.53
2023-02-05T19:26:11.586Z,103518.53
2023-02-05T19:28:36.159Z,103509.47
2023-02-05T19:31:03.604Z,103502.44
2023-02-05T19:33:28.840Z,103489.34
2023-02-05T19:35:52.480Z,103484.97
2023-02-05T19:38:16.260Z,103485.81
2023-02-05T19:40:39.870Z,103484.75
2023-02-05T19:43:03.473Z,103483.81
2023-02-05T19:45:27.314Z,103497.75
2023-02-05T19:47:51.021Z,103484.78
2023-02-05T19:50:16.223Z,103487.84
2023-02-05T19:52:39.838Z,103488.75
2023-02-05T19:55:03.468Z,103493.19
2023-02-05T19:57:27.156Z,103494.28
2023-02-05T19:59:50.734Z,103504.75
2023-02-05T20:02:19.187Z,103496.91
2023-02-05T20:04:43.042Z,103495.06
2023-02-05T20:07:08.123Z,103502.09
2023-02-05T20:09:32.782Z,103491.56
2023-02-05T20:11:56.536Z,103489.78
2023-02-05T20:14:20.548Z,103482.59
2023-02-05T20:16:45.211Z,103481.50
2023-02-05T20:19:10.921Z,103491.94
2023-02-05T20:21:34.808Z,103486.72
2023-02-05T20:24:00.084Z,103471.72
2023-02-05T20:26:23.936Z,103472.75
2023-02-05T20:29:07.355Z,103475.38
2023-02-05T20:31:34.798Z,103483.25
2023-02-05T20:33:58.394Z,103489.22
2023-02-05T20:36:22.204Z,103492.78
2023-02-05T20:38:45.789Z,103493.56
2023-02-05T20:41:16.331Z,103500.28
2023-02-05T20:43:40.028Z,103509.25
2023-02-05T20:46:05.146Z,103499.38
2023-02-05T20:48:30.537Z,103501.97
2023-02-05T20:50:54.135Z,103502.78
2023-02-05T20:53:18.854Z,103501.13
2023-02-05T20:55:42.465Z,103513.31
2023-02-05T20:58:07.567Z,103514.22
2023-02-05T21:00:31.240Z,103533.34
2023-02-05T21:02:55.299Z,103543.91
2023-02-05T21:05:18.999Z,103554.31
2023-02-05T21:07:42.679Z,103552.50
2023-02-05T21:10:07.448Z,103561.38
2023-02-05T21:12:32.423Z,103567.59
2023-02-05T21:14:57.587Z,103564.66
2023-02-05T21:17:21.363Z,103564.78
2023-02-05T21:19:45.011Z,103575.34
2023-02-05T21:22:08.773Z,103580.63
2023-02-05T21:24:33.083Z,103578.63
2023-02-05T21:26:57.201Z,103576.94
2023-02-05T21:29:22.240Z,103574.22
2023-02-05T21:31:49.519Z,103568.78
2023-02-05T21:34:16.203Z,103575.91
2023-02-05T21:36:39.887Z,103582.00
2023-02-05T21:39:03.525Z,103583.75
2023-02-05T21:41:27.736Z,103587.28
2023-02-05T21:43:52.714Z,103602.94
2023-02-05T21:46:16.433Z,103598.63
2023-02-05T21:48:41.819Z,103600.34
2023-02-05T21:51:11.502Z,103597.47
2023-02-05T21:53:35.297Z,103603.69
2023-02-05T21:56:02.717Z,103610.78
2023-02-05T21:58:26.440Z,103614.25
2023-02-05T22:00:50.163Z,103612.63
2023-02-05T22:03:13.860Z,103612.59
2023-02-05T22:05:38.893Z,103605.38
2023-02-05T22:08:02.513Z,103592.91
2023-02-05T22:10:26.169Z,103583.16
2023-02-05T22:12:49.777Z,103587.50
2023-02-05T22:15:14.296Z,103591.22
2023-02-05T22:17:37.950Z,103589.13
2023-02-05T22:20:01.679Z,103584.56
2023-02-05T22:22:26.851Z,103575.22
2023-02-05T22:24:50.746Z,103574.38
2023-02-05T22:27:14.411Z,103581.13
2023-02-05T22:29:38.087Z,103580.25
2023-02-05T22:32:01.741Z,103583.88
2023-02-05T22:34:25.517Z,103585.72
2023-02-05T22:36:49.333Z,103576.50
2023-02-05T22:39:14.445Z,103570.25
2023-02-05T22:41:41.166Z,103573.94
2023-02-05T22:44:07.221Z,103565.00
2023-02-05T22:46:33.842Z,103564.94
2023-02-05T22:48:59.668Z,103558.91
2023-02-05T22:51:25.977Z,103561.41
2023-02-05T22:53:49.977Z,103558.75
2023-02-05T22:56:15.656Z,103560.66
2023-02-05T22:58:41.567Z,103554.50
2023-02-05T23:01:10.063Z,103552.31
2023-02-05T23:03:33.766Z,103555.03
2023-02-05T23:05:57.428Z,103554.28
2023-02-05T23:08:21.043Z,103550.03
2023-02-05T23:10:44.789Z,103542.88
2023-02-05T23:13:09.929Z,103544.47
2023-02-05T23:15:33.679Z,103550.69
2023-02-05T23:17:57.578Z,103555.91
2023-02-05T23:20:21.494Z,103542.78
2023-02-05T23:22:45.244Z,103529.66
2023-02-05T23:25:09.326Z,103528.66
2023-02-05T23:27:34.453Z,103537.19
2023-02-05T23:29:59.589Z,103539.28
2023-02-05T23:32:23.307Z,103533.16
2023-02-05T23:34:47.042Z,103527.81
2023-02-05T23:37:10.896Z,103515.19
2023-02-05T23:39:34.563Z,103524.38
2023-02-05T23:41:58.186Z,103523.59
2023-02-05T23:44:22.162Z,103513.81
2023-02-05T23:46:49.283Z,103512.81
2023-02-05T23:49:13.772Z,103535.13
2023-02-05T23:51:37.966Z,103529.16
2023-02-05T23:54:01.861Z,103521.59
2023-02-05T23:56:25.522Z,103528.56
2023-02-05T23:58:49.154Z,103521.66
